createdAt,value
2018-09-20T00:01:47.310Z,7.97
2018-09-20T00:04:16.931Z,15.60
2018-09-20T00:06:45.888Z,6.90
2018-09-20T00:09:14.735Z,10.50
2018-09-20T00:11:43.586Z,6.97
2018-09-20T00:14:12.954Z,10.03
2018-09-20T00:16:42.102Z,8.50
2018-09-20T00:19:10.973Z,7.60
2018-09-20T00:21:40.096Z,8.90
2018-09-20T00:24:09.207Z,7.67
2018-09-20T00:26:38.069Z,7.83
2018-09-20T00:29:06.912Z,9.23
2018-09-20T00:31:35.791Z,10.73
2018-09-20T00:34:04.647Z,13.93
2018-09-20T00:36:33.539Z,6.90
2018-09-20T00:39:02.387Z,10.30
2018-09-20T00:41:31.905Z,8.73
2018-09-20T00:44:00.783Z,8.33
2018-09-20T00:46:29.707Z,8.80
2018-09-20T00:48:58.586Z,6.97
2018-09-20T00:51:27.464Z,10.03
2018-09-20T00:53:56.672Z,7.57
2018-09-20T00:56:25.540Z,10.83
2018-09-20T00:58:54.864Z,8.47
2018-09-20T01:01:23.917Z,5.93
2018-09-20T01:03:52.824Z,9.07
2018-09-20T01:06:22.209Z,5.70
2018-09-20T01:08:51.134Z,7.80
2018-09-20T01:11:20.812Z,8.43
2018-09-20T01:13:49.887Z,6.30
2018-09-20T01:16:18.766Z,10.00
2018-09-20T01:18:47.615Z,7.60
2018-09-20T01:21:16.785Z,12.90
2018-09-20T01:23:45.984Z,6.50
2018-09-20T01:26:15.355Z,9.53
2018-09-20T01:28:44.202Z,8.50
2018-09-20T01:31:13.087Z,6.73
2018-09-20T01:33:42.187Z,10.30
2018-09-20T01:36:11.051Z,11.93
2018-09-20T01:38:39.935Z,7.47
2018-09-20T01:41:08.795Z,8.73
2018-09-20T01:43:37.878Z,8.33
2018-09-20T01:46:06.778Z,7.27
2018-09-20T01:48:35.679Z,6.20
2018-09-20T01:51:04.799Z,7.77
2018-09-20T01:53:33.653Z,6.23
2018-09-20T01:56:02.495Z,6.07
2018-09-20T01:58:31.911Z,8.47
2018-09-20T02:01:01.080Z,6.33
2018-09-20T02:03:29.941Z,10.50
2018-09-20T02:05:59.096Z,7.43
2018-09-20T02:08:27.960Z,7.33
2018-09-20T02:10:56.810Z,8.00
2018-09-20T02:13:25.689Z,7.03
2018-09-20T02:15:54.547Z,8.90
2018-09-20T02:18:23.442Z,7.50
2018-09-20T02:20:52.594Z,6.07
2018-09-20T02:23:21.532Z,6.00
2018-09-20T02:25:50.384Z,7.30
2018-09-20T02:28:19.230Z,5.90
2018-09-20T02:30:48.182Z,6.87
2018-09-20T02:33:17.074Z,6.63
2018-09-20T02:35:46.304Z,7.37
2018-09-20T02:38:15.526Z,7.87
2018-09-20T02:40:44.522Z,6.57
2018-09-20T02:43:13.392Z,9.90
2018-09-20T02:45:42.255Z,7.07
2018-09-20T02:48:11.123Z,8.27
2018-09-20T02:50:39.984Z,5.20
2018-09-20T02:53:08.928Z,6.77
2018-09-20T02:55:37.771Z,11.03
2018-09-20T02:58:06.659Z,7.53
2018-09-20T03:00:35.522Z,6.77
2018-09-20T03:03:04.462Z,11.20
2018-09-20T03:05:33.324Z,8.17
2018-09-20T03:08:02.174Z,7.23
2018-09-20T03:10:31.059Z,5.67
2018-09-20T03:12:59.949Z,8.80
2018-09-20T03:15:29.123Z,8.27
2018-09-20T03:17:58.312Z,6.40
2018-09-20T03:20:27.188Z,9.30
2018-09-20T03:22:56.060Z,7.53
2018-09-20T03:25:24.914Z,6.83
2018-09-20T03:27:54.050Z,9.30
2018-09-20T03:30:23.185Z,7.80
2018-09-20T03:32:52.492Z,5.93
2018-09-20T03:35:21.683Z,8.50
2018-09-20T03:37:50.568Z,7.80
2018-09-20T03:40:19.425Z,7.57
2018-09-20T03:42:48.817Z,8.83
2018-09-20T03:45:17.688Z,9.30
2018-09-20T03:47:46.586Z,9.70
2018-09-20T03:50:15.499Z,11.03
2018-09-20T03:52:44.378Z,9.37
2018-09-20T03:55:13.276Z,16.10
2018-09-20T03:57:42.142Z,11.93
2018-09-20T04:00:11.022Z,9.07
2018-09-20T04:02:40.175Z,11.50
2018-09-20T04:05:09.059Z,13.03
2018-09-20T04:07:37.907Z,10.00
2018-09-20T04:10:07.265Z,9.07
2018-09-20T04:12:36.151Z,8.53
2018-09-20T04:15:05.703Z,8.10
2018-09-20T04:17:34.543Z,8.73
2018-09-20T04:20:03.459Z,9.87
2018-09-20T04:22:32.909Z,15.40
2018-09-20T04:25:01.940Z,10.63
2018-09-20T04:27:30.802Z,12.60
2018-09-20T04:29:59.715Z,11.83
2018-09-20T04:32:28.628Z,9.57
2018-09-20T04:34:57.539Z,12.30
2018-09-20T04:37:26.708Z,8.80
2018-09-20T04:39:55.624Z,9.60
2018-09-20T04:42:24.803Z,8.40
2018-09-20T04:44:53.711Z,10.70
2018-09-20T04:47:22.574Z,10.10
2018-09-20T04:49:51.443Z,13.97
2018-09-20T04:52:20.357Z,9.80
2018-09-20T04:54:49.220Z,13.30
2018-09-20T04:57:18.099Z,12.80
2018-09-20T04:59:47.043Z,9.60
2018-09-20T05:02:15.978Z,11.80
2018-09-20T05:04:44.859Z,11.33
2018-09-20T05:07:13.733Z,14.90
2018-09-20T05:09:43.210Z,10.57
2018-09-20T05:12:14.074Z,11.17
2018-09-20T05:14:43.194Z,9.60
2018-09-20T05:17:12.368Z,6.77
2018-09-20T05:19:41.572Z,10.63
2018-09-20T05:22:10.480Z,10.90
2018-09-20T05:24:39.465Z,11.93
2018-09-20T05:27:08.920Z,13.40
2018-09-20T05:29:38.213Z,11.40
2018-09-20T05:32:07.551Z,11.20
2018-09-20T05:34:36.434Z,12.00
2018-09-20T05:37:05.814Z,15.60
2018-09-20T05:39:34.812Z,10.03
2018-09-20T05:42:03.743Z,8.80
2018-09-20T05:44:33.092Z,12.60
2018-09-20T05:47:02.203Z,11.33
2018-09-20T05:49:31.347Z,16.27
2018-09-20T05:52:00.250Z,17.20
2018-09-20T05:54:29.179Z,15.13
2018-09-20T05:56:58.083Z,24.20
2018-09-20T05:59:26.952Z,16.53
2018-09-20T06:01:55.891Z,17.57
2018-09-20T06:04:24.800Z,14.53
2018-09-20T06:06:53.717Z,13.90
2018-09-20T06:09:22.833Z,21.70
2018-09-20T06:11:51.708Z,24.97
2018-09-20T06:14:20.906Z,22.43
2018-09-20T06:16:49.791Z,24.40
2018-09-20T06:19:18.998Z,20.60
2018-09-20T06:21:48.211Z,24.20
2018-09-20T06:24:17.398Z,18.07
2018-09-20T06:26:46.291Z,22.40
2018-09-20T06:29:15.179Z,19.60
2018-09-20T06:31:44.082Z,22.53
2018-09-20T06:34:12.961Z,31.13
2018-09-20T06:36:41.952Z,23.43
2018-09-20T06:39:12.486Z,27.07
2018-09-20T06:41:41.923Z,16.23
2018-09-20T06:44:11.117Z,22.60
2018-09-20T06:46:40.300Z,15.60
2018-09-20T06:49:09.473Z,23.43
2018-09-20T06:51:38.403Z,21.93
2018-09-20T06:54:07.568Z,28.03
2018-09-20T06:56:36.540Z,19.93
2018-09-20T06:59:05.619Z,21.77
2018-09-20T07:01:34.539Z,25.77
2018-09-20T07:04:03.539Z,21.70
2018-09-20T07:06:32.943Z,21.43
2018-09-20T07:09:01.816Z,16.53
2018-09-20T07:11:30.697Z,22.30
2018-09-20T07:13:59.838Z,21.03
2018-09-20T07:16:29.044Z,17.13
2018-09-20T07:18:57.947Z,13.90
2018-09-20T07:21:26.852Z,17.33
2018-09-20T07:23:56.289Z,13.83
2018-09-20T07:26:25.539Z,20.33
2018-09-20T07:28:54.446Z,13.27
2018-09-20T07:31:23.461Z,11.90
2018-09-20T07:33:52.346Z,21.30
2018-09-20T07:36:21.948Z,17.13
2018-09-20T07:38:50.873Z,11.87
2018-09-20T07:41:19.751Z,22.00
2018-09-20T07:43:48.677Z,19.30
2018-09-20T07:46:17.601Z,15.70
2018-09-20T07:48:46.532Z,17.30
2018-09-20T07:51:15.739Z,13.57
2018-09-20T07:53:44.652Z,13.20
2018-09-20T07:56:13.771Z,15.17
2018-09-20T07:58:42.855Z,14.20
2018-09-20T08:01:13.670Z,10.90
2018-09-20T08:03:42.799Z,14.70
2018-09-20T08:06:12.295Z,12.67
2018-09-20T08:08:41.674Z,11.43
2018-09-20T08:11:10.963Z,7.97
2018-09-20T08:13:39.817Z,11.40
2018-09-20T08:16:09.010Z,16.43
2018-09-20T08:18:37.937Z,8.97
2018-09-20T08:21:07.235Z,8.90
2018-09-20T08:23:36.107Z,10.60
2018-09-20T08:26:05.055Z,7.03
2018-09-20T08:28:33.993Z,9.73
2018-09-20T08:31:02.858Z,9.97
2018-09-20T08:33:31.775Z,14.63
2018-09-20T08:36:00.958Z,7.93
2018-09-20T08:38:29.821Z,10.37
2018-09-20T08:40:59.041Z,10.67
2018-09-20T08:43:27.935Z,13.40
2018-09-20T08:45:57.151Z,7.10
2018-09-20T08:48:26.223Z,8.33
2018-09-20T08:50:55.503Z,8.23
2018-09-20T08:53:24.419Z,10.10
2018-09-20T08:55:53.301Z,6.70
2018-09-20T08:58:22.168Z,7.60
2018-09-20T09:00:51.317Z,8.80
2018-09-20T09:03:20.243Z,7.47
2018-09-20T09:05:49.629Z,4.03
2018-09-20T09:08:18.760Z,5.37
2018-09-20T09:10:47.623Z,12.27
2018-09-20T09:13:16.898Z,3.20
2018-09-20T09:15:46.247Z,7.60
2018-09-20T09:18:15.127Z,3.80
2018-09-20T09:20:44.289Z,6.87
2018-09-20T09:23:13.180Z,11.80
2018-09-20T09:25:42.068Z,6.90
2018-09-20T09:28:10.950Z,5.00
2018-09-20T09:30:39.843Z,6.70
2018-09-20T09:33:08.707Z,6.83
2018-09-20T09:35:38.338Z,13.83
2018-09-20T09:38:07.459Z,10.90
2018-09-20T09:40:36.367Z,4.13
2018-09-20T09:43:05.526Z,16.73
2018-09-20T09:45:34.405Z,4.73
2018-09-20T09:48:03.536Z,5.60
2018-09-20T09:50:33.506Z,6.10
2018-09-20T09:53:02.367Z,6.90
2018-09-20T09:55:31.219Z,5.83
2018-09-20T09:58:00.102Z,9.20
2018-09-20T10:00:35.903Z,7.10
2018-09-20T10:03:05.255Z,6.40
2018-09-20T10:05:34.438Z,11.37
2018-09-20T10:08:03.332Z,8.07
2018-09-20T10:10:32.347Z,18.40
2018-09-20T10:13:01.229Z,10.87
2018-09-20T10:15:30.126Z,5.73
2018-09-20T10:17:58.994Z,8.90
2018-09-20T10:20:27.924Z,8.17
2018-09-20T10:22:58.861Z,5.13
2018-09-20T10:25:27.781Z,7.73
2018-09-20T10:27:57.388Z,5.97
2018-09-20T10:30:26.787Z,7.80
2018-09-20T10:32:55.723Z,6.93
2018-09-20T10:35:24.819Z,4.43
2018-09-20T10:37:54.270Z,6.67
2018-09-20T10:40:23.314Z,5.50
2018-09-20T10:42:52.196Z,9.40
2018-09-20T10:45:21.063Z,4.00
2018-09-20T10:47:50.398Z,9.90
2018-09-20T10:50:19.267Z,11.90
2018-09-20T10:52:48.138Z,9.00
2018-09-20T10:55:17.035Z,7.50
2018-09-20T10:57:45.936Z,6.03
2018-09-20T11:00:14.822Z,5.00
2018-09-20T11:02:43.740Z,6.27
2018-09-20T11:05:12.647Z,11.07
2018-09-20T11:07:41.614Z,6.80
2018-09-20T11:10:11.341Z,4.73
2018-09-20T11:12:40.921Z,8.27
2018-09-20T11:15:10.139Z,6.50
2018-09-20T11:17:39.158Z,4.60
2018-09-20T11:20:08.154Z,8.50
2018-09-20T11:22:37.099Z,7.03
2018-09-20T11:25:06.290Z,8.07
2018-09-20T11:27:35.168Z,6.53
2018-09-20T11:30:04.139Z,13.50
2018-09-20T11:32:33.030Z,7.83
2018-09-20T11:35:02.237Z,5.00
2018-09-20T11:37:31.390Z,3.03
2018-09-20T11:40:00.485Z,9.03
2018-09-20T11:42:29.989Z,4.33
2018-09-20T11:44:59.437Z,6.57
2018-09-20T11:47:28.442Z,4.20
2018-09-20T11:49:57.675Z,5.53
2018-09-20T11:52:26.914Z,6.10
2018-09-20T11:54:56.058Z,9.30
2018-09-20T11:57:24.935Z,6.90
2018-09-20T11:59:54.107Z,12.77
2018-09-20T12:02:22.992Z,7.80
2018-09-20T12:04:51.883Z,4.90
2018-09-20T12:07:21.080Z,4.23
2018-09-20T12:09:50.276Z,9.97
2018-09-20T12:12:19.495Z,6.73
2018-09-20T12:14:48.689Z,10.70
2018-09-20T12:17:17.619Z,4.77
2018-09-20T12:19:46.514Z,5.63
2018-09-20T12:22:15.389Z,7.43
2018-09-20T12:24:44.263Z,9.93
2018-09-20T12:27:13.466Z,9.97
2018-09-20T12:29:42.386Z,8.63
2018-09-20T12:32:11.366Z,9.63
2018-09-20T12:34:40.791Z,9.33
2018-09-20T12:37:09.680Z,9.33
2018-09-20T12:39:38.881Z,8.43
2018-09-20T12:42:14.272Z,9.00
2018-09-20T12:44:43.513Z,11.37
2018-09-20T12:47:12.744Z,8.47
2018-09-20T12:49:42.800Z,8.40
2018-09-20T12:52:11.999Z,5.77
2018-09-20T12:54:40.999Z,5.80
2018-09-20T12:57:10.059Z,7.00
2018-09-20T12:59:38.967Z,6.10
2018-09-20T13:02:08.483Z,6.20
2018-09-20T13:05:08.757Z,6.03
2018-09-20T13:07:37.911Z,7.40
2018-09-20T13:10:07.080Z,8.30
2018-09-20T13:12:36.216Z,8.53
2018-09-20T13:15:05.537Z,8.63
2018-09-20T13:17:34.495Z,5.23
2018-09-20T13:20:03.702Z,5.73
2018-09-20T13:22:32.580Z,8.80
2018-09-20T13:25:01.703Z,11.73
2018-09-20T13:27:31.064Z,11.77
2018-09-20T13:30:00.216Z,9.13
2018-09-20T13:32:29.439Z,8.87
2018-09-20T13:34:58.637Z,7.90
2018-09-20T13:37:27.830Z,6.10
2018-09-20T13:39:56.818Z,5.53
2018-09-20T13:42:25.716Z,6.73
2018-09-20T13:44:54.863Z,7.97
2018-09-20T13:47:24.279Z,6.73
2018-09-20T13:49:53.570Z,13.40
2018-09-20T13:52:22.466Z,18.30
2018-09-20T13:54:53.544Z,5.80
2018-09-20T13:57:22.448Z,5.10
2018-09-20T13:59:51.569Z,6.93
2018-09-20T14:02:20.457Z,8.47
2018-09-20T14:04:49.374Z,11.43
2018-09-20T14:07:18.271Z,10.60
2018-09-20T14:09:47.188Z,8.93
2018-09-20T14:12:16.080Z,9.40
2018-09-20T14:14:45.306Z,10.23
2018-09-20T14:17:14.505Z,11.90
2018-09-20T14:19:43.942Z,12.93
2018-09-20T14:22:12.955Z,15.33
2018-09-20T14:24:42.144Z,5.60
2018-09-20T14:27:11.115Z,9.97
2018-09-20T14:29:40.012Z,9.03
2018-09-20T14:32:08.916Z,7.60
2018-09-20T14:34:38.215Z,11.07
2018-09-20T14:37:07.184Z,7.20
2018-09-20T14:39:36.104Z,8.87
2018-09-20T14:42:04.987Z,6.10
2018-09-20T14:44:33.943Z,9.40
2018-09-20T14:47:02.843Z,6.17
2018-09-20T14:49:31.751Z,9.63
2018-09-20T14:52:00.706Z,10.50
2018-09-20T14:54:29.899Z,6.50
2018-09-20T14:56:59.145Z,11.67
2018-09-20T14:59:28.094Z,7.07
2018-09-20T15:01:57.391Z,11.50
2018-09-20T15:04:26.512Z,9.83
2018-09-20T15:06:55.391Z,9.77
2018-09-20T15:09:24.324Z,8.90
2018-09-20T15:11:53.465Z,8.53
2018-09-20T15:14:22.617Z,5.10
2018-09-20T15:16:52.092Z,4.20
2018-09-20T15:19:21.044Z,8.67
2018-09-20T15:21:50.406Z,8.63
2018-09-20T15:24:19.339Z,8.10
2018-09-20T15:26:48.444Z,8.33
2018-09-20T15:29:17.597Z,8.00
2018-09-20T15:31:46.506Z,8.50
2018-09-20T15:34:15.448Z,6.87
2018-09-20T15:36:45.125Z,5.03
2018-09-20T15:39:14.111Z,5.30
2018-09-20T15:41:43.483Z,13.03
2018-09-20T15:44:12.395Z,6.03
2018-09-20T15:46:41.411Z,11.03
2018-09-20T15:49:10.375Z,7.70
2018-09-20T15:51:39.263Z,6.23
2018-09-20T15:54:08.861Z,13.40
2018-09-20T15:56:37.764Z,12.30
2018-09-20T15:59:06.653Z,8.10
2018-09-20T16:01:35.641Z,10.20
2018-09-20T16:04:04.536Z,8.60
2018-09-20T16:06:33.481Z,4.83
2018-09-20T16:09:02.687Z,5.57
2018-09-20T16:11:31.912Z,11.00
2018-09-20T16:14:00.808Z,9.90
2018-09-20T16:16:29.699Z,9.50
2018-09-20T16:18:58.880Z,7.77
2018-09-20T16:21:27.783Z,5.20
2018-09-20T16:23:56.895Z,12.33
2018-09-20T16:26:25.867Z,5.20
2018-09-20T16:29:08.275Z,6.77
2018-09-20T16:31:52.911Z,5.83
2018-09-20T16:34:36.387Z,12.60
2018-09-20T16:37:15.123Z,5.23
2018-09-20T16:39:45.953Z,6.90
2018-09-20T16:42:16.043Z,7.70
2018-09-20T16:44:44.920Z,8.67
2018-09-20T16:47:13.907Z,6.63
2018-09-20T16:49:43.244Z,5.90
2018-09-20T16:52:12.114Z,9.87
2018-09-20T16:54:41.610Z,9.70
2018-09-20T16:57:10.570Z,10.83
2018-09-20T16:59:39.744Z,8.40
2018-09-20T17:02:08.803Z,12.13
2018-09-20T17:04:38.004Z,8.10
2018-09-20T17:07:06.932Z,13.30
2018-09-20T17:09:35.814Z,5.53
2018-09-20T17:12:04.764Z,4.63
2018-09-20T17:14:33.993Z,4.90
2018-09-20T17:17:03.019Z,9.87
2018-09-20T17:19:31.936Z,5.80
2018-09-20T17:22:00.790Z,9.63
2018-09-20T17:24:29.730Z,13.57
2018-09-20T17:26:58.684Z,11.40
2018-09-20T17:29:27.928Z,8.17
2018-09-20T17:31:56.862Z,13.70
2018-09-20T17:34:26.012Z,9.83
2018-09-20T17:36:56.036Z,8.50
2018-09-20T17:39:26.773Z,12.10
2018-09-20T17:41:57.035Z,8.90
2018-09-20T17:44:25.940Z,12.67
2018-09-20T17:46:54.860Z,13.60
2018-09-20T17:49:25.571Z,11.43
2018-09-20T17:51:55.007Z,9.80
2018-09-20T17:54:24.208Z,8.10
2018-09-20T17:56:53.554Z,6.60
2018-09-20T17:59:22.783Z,12.37
2018-09-20T18:01:51.707Z,11.97
2018-09-20T18:04:20.685Z,14.03
2018-09-20T18:06:49.638Z,11.80
2018-09-20T18:09:18.976Z,11.40
2018-09-20T18:11:47.979Z,17.10
2018-09-20T18:14:16.967Z,11.93
2018-09-20T18:16:46.152Z,10.37
2018-09-20T18:19:15.062Z,9.60
2018-09-20T18:21:43.986Z,11.90
2018-09-20T18:24:13.204Z,12.77
2018-09-20T18:26:42.230Z,11.60
2018-09-20T18:29:11.123Z,13.30
2018-09-20T18:31:40.116Z,12.03
2018-09-20T18:34:09.048Z,13.10
2018-09-20T18:36:38.099Z,10.50
2018-09-20T18:39:08.946Z,12.03
2018-09-20T18:41:37.835Z,11.90
2018-09-20T18:44:07.103Z,13.20
2018-09-20T18:46:36.294Z,12.20
2018-09-20T18:49:05.384Z,10.70
2018-09-20T18:51:34.307Z,18.07
2018-09-20T18:54:03.223Z,8.67
2018-09-20T18:56:32.507Z,15.17
2018-09-20T18:59:01.601Z,12.63
2018-09-20T19:01:34.090Z,14.27
2018-09-20T19:04:10.323Z,19.80
2018-09-20T19:06:40.165Z,16.10
2018-09-20T19:09:10.433Z,14.03
2018-09-20T19:11:39.741Z,15.90
2018-09-20T19:14:09.285Z,14.30
2018-09-20T19:16:38.709Z,13.53
2018-09-20T19:19:07.679Z,18.47
2018-09-20T19:21:38.609Z,13.13
2018-09-20T19:24:07.777Z,19.60
2018-09-20T19:26:37.544Z,10.53
2018-09-20T19:29:06.477Z,13.73
2018-09-20T19:31:35.456Z,20.23
2018-09-20T19:34:04.355Z,12.30
2018-09-20T19:36:33.605Z,11.80
2018-09-20T19:39:02.585Z,15.13
2018-09-20T19:41:31.893Z,13.77
2018-09-20T19:44:02.301Z,17.07
2018-09-20T19:46:31.736Z,12.37
2018-09-20T19:49:00.771Z,19.67
2018-09-20T19:51:29.911Z,20.37
2018-09-20T19:53:58.853Z,20.30
2018-09-20T19:56:28.270Z,15.47
2018-09-20T19:58:57.620Z,18.83
2018-09-20T20:01:26.517Z,16.10
2018-09-20T20:03:56.474Z,23.50
2018-09-20T20:06:25.857Z,19.43
2018-09-20T20:08:55.871Z,19.13
2018-09-20T20:11:25.356Z,19.47
2018-09-20T20:13:55.830Z,18.33
2018-09-20T20:16:24.695Z,16.07
2018-09-20T20:18:53.860Z,13.87
2018-09-20T20:21:23.211Z,14.00
2018-09-20T20:23:52.447Z,14.77
2018-09-20T20:26:21.559Z,14.30
2018-09-20T20:28:50.512Z,15.63
2018-09-20T20:31:19.651Z,17.20
2018-09-20T20:33:48.573Z,15.27
2018-09-20T20:36:17.751Z,15.47
2018-09-20T20:38:47.057Z,15.30
2018-09-20T20:41:16.102Z,16.43
2018-09-20T20:43:45.110Z,19.10
2018-09-20T20:46:14.351Z,14.33
2018-09-20T20:48:44.266Z,20.90
2018-09-20T20:51:13.543Z,10.80
2018-09-20T20:53:42.592Z,19.03
2018-09-20T20:56:12.192Z,16.83
2018-09-20T20:58:41.147Z,15.80
2018-09-20T21:01:16.052Z,22.07
2018-09-20T21:03:45.224Z,17.50
2018-09-20T21:06:14.508Z,12.60
2018-09-20T21:08:43.611Z,24.60
2018-09-20T21:11:12.814Z,13.80
2018-09-20T21:13:41.934Z,10.97
2018-09-20T21:16:11.316Z,23.93
2018-09-20T21:18:40.862Z,13.50
2018-09-20T21:21:10.607Z,15.00
2018-09-20T21:23:39.589Z,11.80
2018-09-20T21:26:08.674Z,13.57
2018-09-20T21:28:37.694Z,16.67
2018-09-20T21:31:06.976Z,18.37
2018-09-20T21:33:36.133Z,15.23
2018-09-20T21:36:05.365Z,15.47
2018-09-20T21:38:34.280Z,13.50
2018-09-20T21:41:03.473Z,13.57
2018-09-20T21:43:32.914Z,14.80
2018-09-20T21:46:01.884Z,21.17
2018-09-20T21:48:30.727Z,16.60
2018-09-20T21:50:59.719Z,17.07
2018-09-20T21:53:28.574Z,17.20
2018-09-20T21:55:57.615Z,16.43
2018-09-20T21:58:26.506Z,14.80
2018-09-20T22:01:01.669Z,13.37
2018-09-20T22:03:32.935Z,16.57
2018-09-20T22:06:01.984Z,12.23
2018-09-20T22:08:31.139Z,19.33
2018-09-20T22:11:00.268Z,14.20
2018-09-20T22:13:29.496Z,20.67
2018-09-20T22:15:58.370Z,14.50
2018-09-20T22:18:27.519Z,14.50
2018-09-20T22:20:56.413Z,15.43
2018-09-20T22:23:25.299Z,16.40
2018-09-20T22:25:54.416Z,17.43
2018-09-20T22:28:23.333Z,19.20
2018-09-20T22:30:52.236Z,15.83
2018-09-20T22:33:21.237Z,14.47
2018-09-20T22:35:50.140Z,14.10
2018-09-20T22:38:19.052Z,13.00
2018-09-20T22:40:48.233Z,15.07
2018-09-20T22:43:17.150Z,15.03
2018-09-20T22:45:46.062Z,15.00
2018-09-20T22:48:15.153Z,13.90
2018-09-20T22:50:44.143Z,14.63
2018-09-20T22:53:13.040Z,14.20
2018-09-20T22:55:42.169Z,13.93
2018-09-20T22:58:11.317Z,14.70
2018-09-20T23:00:40.191Z,14.63
2018-09-20T23:03:09.064Z,17.50
2018-09-20T23:05:37.925Z,12.67
2018-09-20T23:08:07.060Z,19.13
2018-09-20T23:10:35.993Z,12.50
2018-09-20T23:13:04.872Z,13.40
2018-09-20T23:15:33.755Z,19.63
2018-09-20T23:18:02.642Z,19.67
2018-09-20T23:20:31.534Z,16.17
2018-09-20T23:23:00.727Z,15.80
2018-09-20T23:25:29.604Z,9.97
2018-09-20T23:27:58.691Z,13.03
2018-09-20T23:30:27.583Z,19.03
2018-09-20T23:32:56.861Z,14.47
2018-09-20T23:35:25.732Z,14.47
2018-09-20T23:37:54.611Z,11.73
2018-09-20T23:40:23.577Z,11.13
2018-09-20T23:42:52.853Z,17.17
2018-09-20T23:45:21.751Z,11.60
2018-09-20T23:47:50.983Z,15.93
2018-09-20T23:50:20.441Z,11.93
2018-09-20T23:52:49.539Z,12.07
2018-09-20T23:55:18.399Z,12.70
2018-09-20T23:57:47.308Z,15.33
